PSCTB SSGG-SBDN
Flight info
| Callsign | PSCTB |
|---|---|
| Flight time | 1h 18m |
| Altitude | 7000 |
| Route | UMLEX |
| Aircraft | C208/L-SDFGR/C |
Departure
| Time | 2026-04-26 23:21 |
|---|---|
| Airport | Tancredo Thomas de Faria Airport (SSGG) |
Arrival
| Time | 2026-04-27 00:39 |
|---|---|
| Airport | Presidente Prudente Airport (SBDN) |
| Time | Latitude | Longitude | Altitude | Speed | Heading |
|---|---|---|---|---|---|
| 2026-04-26 23:14 | -25.38789 | -51.51953 | 3492 ft | 0 kts | 329° |
| 2026-04-26 23:18 | -25.38786 | -51.51955 | 3496 ft | 4 kts | 328° |
| 2026-04-26 23:18 | -25.38755 | -51.51946 | 3491 ft | 5 kts | 54° |
| 2026-04-26 23:18 | -25.38742 | -51.51943 | 3491 ft | 0 kts | 337° |
| 2026-04-26 23:19 | -25.38714 | -51.51959 | 3492 ft | 10 kts | 336° |
| 2026-04-26 23:19 | -25.38642 | -51.51918 | 3502 ft | 18 kts | 57° |
| 2026-04-26 23:19 | -25.38585 | -51.51803 | 3497 ft | 16 kts | 66° |
| 2026-04-26 23:20 | -25.38536 | -51.51714 | 3496 ft | 14 kts | 126° |
| 2026-04-26 23:20 | -25.38581 | -51.51777 | 3493 ft | 8 kts | 243° |
| 2026-04-26 23:20 | -25.38629 | -51.51878 | 3500 ft | 35 kts | 240° |
| 2026-04-26 23:20 | -25.38798 | -51.52254 | 3491 ft | 81 kts | 243° |
| 2026-04-26 23:21 | -25.39084 | -51.52925 | 3580 ft | 103 kts | 247° |
| 2026-04-26 23:21 | -25.39232 | -51.53696 | 3843 ft | 106 kts | 272° |
| 2026-04-26 23:21 | -25.38915 | -51.54403 | 4086 ft | 108 kts | 329° |
| 2026-04-26 23:21 | -25.38199 | -51.54337 | 4307 ft | 112 kts | 41° |
| 2026-04-26 23:22 | -25.37603 | -51.53753 | 4567 ft | 118 kts | 40° |
| 2026-04-26 23:22 | -25.36876 | -51.53331 | 4817 ft | 123 kts | 13° |
| 2026-04-26 23:22 | -25.35992 | -51.53331 | 5083 ft | 132 kts | 356° |
| 2026-04-26 23:22 | -25.35051 | -51.53398 | 5350 ft | 135 kts | 356° |
| 2026-04-26 23:23 | -25.34125 | -51.53478 | 5604 ft | 135 kts | 355° |
| 2026-04-26 23:23 | -25.33199 | -51.53568 | 5867 ft | 140 kts | 355° |
| 2026-04-26 23:23 | -25.32199 | -51.53667 | 6120 ft | 144 kts | 354° |
| 2026-04-26 23:23 | -25.31205 | -51.53769 | 6372 ft | 145 kts | 355° |
| 2026-04-26 23:24 | -25.30202 | -51.53867 | 6624 ft | 144 kts | 355° |
| 2026-04-26 23:24 | -25.29204 | -51.53964 | 6872 ft | 143 kts | 355° |
| 2026-04-26 23:24 | -25.28206 | -51.54062 | 7082 ft | 147 kts | 355° |
| 2026-04-26 23:24 | -25.27136 | -51.54171 | 7094 ft | 161 kts | 355° |
| 2026-04-26 23:25 | -25.25998 | -51.54288 | 7103 ft | 168 kts | 355° |
| 2026-04-26 23:25 | -25.24808 | -51.54406 | 7099 ft | 174 kts | 355° |
| 2026-04-26 23:25 | -25.23594 | -51.54525 | 7102 ft | 175 kts | 355° |
| 2026-04-26 23:25 | -25.22373 | -51.54648 | 7101 ft | 177 kts | 355° |
| 2026-04-26 23:26 | -25.21134 | -51.54769 | 7101 ft | 179 kts | 355° |
| 2026-04-26 23:26 | -25.19889 | -51.54892 | 7096 ft | 179 kts | 355° |
| 2026-04-26 23:26 | -25.18643 | -51.55016 | 7091 ft | 180 kts | 355° |
| 2026-04-26 23:26 | -25.17402 | -51.55138 | 7094 ft | 179 kts | 355° |
| 2026-04-26 23:27 | -25.16176 | -51.55261 | 7096 ft | 179 kts | 355° |
| 2026-04-26 23:27 | -25.14932 | -51.55386 | 7090 ft | 179 kts | 355° |
| 2026-04-26 23:27 | -25.13699 | -51.55509 | 7095 ft | 177 kts | 355° |
| 2026-04-26 23:27 | -25.12868 | -51.55593 | 7091 ft | 178 kts | 355° |
| 2026-04-26 23:28 | -25.11225 | -51.55753 | 7089 ft | 178 kts | 355° |
| 2026-04-26 23:28 | -25.10328 | -51.55842 | 7089 ft | 177 kts | 355° |
| 2026-04-26 23:28 | -25.09106 | -51.55961 | 7087 ft | 176 kts | 355° |
| 2026-04-26 23:28 | -25.07882 | -51.56086 | 7090 ft | 178 kts | 355° |
| 2026-04-26 23:29 | -25.06653 | -51.56209 | 7089 ft | 177 kts | 355° |
| 2026-04-26 23:29 | -25.05426 | -51.56330 | 7090 ft | 177 kts | 355° |
| 2026-04-26 23:29 | -25.04198 | -51.56451 | 7088 ft | 177 kts | 355° |
| 2026-04-26 23:29 | -25.02967 | -51.56573 | 7091 ft | 179 kts | 355° |
| 2026-04-26 23:30 | -25.01731 | -51.56697 | 7093 ft | 178 kts | 355° |
| 2026-04-26 23:30 | -25.00498 | -51.56818 | 7093 ft | 179 kts | 355° |
| 2026-04-26 23:30 | -24.99261 | -51.56941 | 7089 ft | 178 kts | 355° |
| 2026-04-26 23:30 | -24.98032 | -51.57063 | 7089 ft | 177 kts | 355° |
| 2026-04-26 23:31 | -24.96823 | -51.57181 | 7095 ft | 177 kts | 355° |
| 2026-04-26 23:31 | -24.95594 | -51.57304 | 7090 ft | 177 kts | 355° |
| 2026-04-26 23:31 | -24.94357 | -51.57429 | 7096 ft | 180 kts | 355° |
| 2026-04-26 23:31 | -24.93108 | -51.57552 | 7090 ft | 179 kts | 355° |
| 2026-04-26 23:32 | -24.91869 | -51.57670 | 7093 ft | 178 kts | 355° |
| 2026-04-26 23:32 | -24.90635 | -51.57795 | 7089 ft | 177 kts | 355° |
| 2026-04-26 23:32 | -24.89406 | -51.57923 | 7097 ft | 178 kts | 355° |
| 2026-04-26 23:32 | -24.88162 | -51.58045 | 7090 ft | 179 kts | 355° |
| 2026-04-26 23:33 | -24.86926 | -51.58161 | 7093 ft | 177 kts | 355° |
| 2026-04-26 23:33 | -24.85697 | -51.58284 | 7097 ft | 179 kts | 355° |
| 2026-04-26 23:33 | -24.84454 | -51.58408 | 7095 ft | 179 kts | 355° |
| 2026-04-26 23:33 | -24.83207 | -51.58529 | 7092 ft | 180 kts | 355° |
| 2026-04-26 23:34 | -24.81966 | -51.58655 | 7093 ft | 178 kts | 355° |
| 2026-04-26 23:34 | -24.80731 | -51.58776 | 7096 ft | 178 kts | 355° |
| 2026-04-26 23:34 | -24.79510 | -51.58896 | 7092 ft | 178 kts | 355° |
| 2026-04-26 23:34 | -24.78265 | -51.59020 | 7125 ft | 178 kts | 356° |
| 2026-04-26 23:35 | -24.77033 | -51.59145 | 7125 ft | 182 kts | 356° |
| 2026-04-26 23:35 | -24.75767 | -51.59263 | 7123 ft | 184 kts | 356° |
| 2026-04-26 23:35 | -24.74478 | -51.59391 | 7083 ft | 188 kts | 356° |
| 2026-04-26 23:35 | -24.73155 | -51.59523 | 7028 ft | 193 kts | 354° |
| 2026-04-26 23:36 | -24.71806 | -51.59658 | 7002 ft | 195 kts | 351° |
| 2026-04-26 23:36 | -24.70464 | -51.59791 | 7004 ft | 192 kts | 349° |
| 2026-04-26 23:36 | -24.69147 | -51.59919 | 7012 ft | 187 kts | 348° |
| 2026-04-26 23:36 | -24.67871 | -51.60045 | 7004 ft | 180 kts | 349° |
| 2026-04-26 23:37 | -24.66650 | -51.60162 | 7003 ft | 173 kts | 348° |
| 2026-04-26 23:37 | -24.65468 | -51.60280 | 7006 ft | 169 kts | 348° |
| 2026-04-26 23:37 | -24.64319 | -51.60395 | 7002 ft | 168 kts | 348° |
| 2026-04-26 23:37 | -24.63154 | -51.60510 | 7004 ft | 167 kts | 348° |
| 2026-04-26 23:38 | -24.61997 | -51.60625 | 6997 ft | 167 kts | 348° |
| 2026-04-26 23:38 | -24.60844 | -51.60739 | 6999 ft | 166 kts | 348° |
| 2026-04-26 23:38 | -24.59690 | -51.60852 | 6999 ft | 167 kts | 348° |
| 2026-04-26 23:38 | -24.58533 | -51.60966 | 6991 ft | 167 kts | 348° |
| 2026-04-26 23:39 | -24.57379 | -51.61079 | 6993 ft | 166 kts | 348° |
| 2026-04-26 23:39 | -24.56226 | -51.61194 | 6995 ft | 166 kts | 348° |
| 2026-04-26 23:39 | -24.55086 | -51.61306 | 6987 ft | 165 kts | 348° |
| 2026-04-26 23:39 | -24.53947 | -51.61417 | 6990 ft | 164 kts | 348° |
| 2026-04-26 23:40 | -24.52807 | -51.61531 | 6995 ft | 165 kts | 348° |
| 2026-04-26 23:40 | -24.51665 | -51.61644 | 6992 ft | 165 kts | 348° |
| 2026-04-26 23:40 | -24.50518 | -51.61755 | 6998 ft | 166 kts | 349° |
| 2026-04-26 23:40 | -24.49364 | -51.61869 | 6995 ft | 168 kts | 349° |
| 2026-04-26 23:41 | -24.48192 | -51.61984 | 7000 ft | 169 kts | 349° |
| 2026-04-26 23:41 | -24.47016 | -51.62102 | 7000 ft | 170 kts | 349° |
| 2026-04-26 23:41 | -24.45830 | -51.62219 | 6998 ft | 172 kts | 349° |
| 2026-04-26 23:41 | -24.44638 | -51.62335 | 6997 ft | 171 kts | 349° |
| 2026-04-26 23:42 | -24.43449 | -51.62450 | 6996 ft | 171 kts | 349° |
| 2026-04-26 23:42 | -24.41079 | -51.62682 | 6991 ft | 169 kts | 349° |
| 2026-04-26 23:42 | -24.39912 | -51.62797 | 6988 ft | 167 kts | 348° |
| 2026-04-26 23:43 | -24.38774 | -51.62909 | 6986 ft | 165 kts | 348° |
| 2026-04-26 23:43 | -24.37632 | -51.63022 | 6985 ft | 165 kts | 348° |
| 2026-04-26 23:43 | -24.36494 | -51.63133 | 6984 ft | 163 kts | 349° |
| 2026-04-26 23:43 | -24.35359 | -51.63243 | 6982 ft | 163 kts | 348° |
| 2026-04-26 23:44 | -24.34228 | -51.63355 | 6982 ft | 163 kts | 348° |
| 2026-04-26 23:44 | -24.33090 | -51.63469 | 6985 ft | 165 kts | 348° |
| 2026-04-26 23:44 | -24.31934 | -51.63583 | 6990 ft | 167 kts | 349° |
| 2026-04-26 23:44 | -24.30771 | -51.63696 | 6992 ft | 170 kts | 348° |
| 2026-04-26 23:45 | -24.29586 | -51.63812 | 6995 ft | 172 kts | 348° |
| 2026-04-26 23:45 | -24.28395 | -51.63929 | 7001 ft | 172 kts | 348° |
| 2026-04-26 23:45 | -24.27201 | -51.64045 | 6997 ft | 172 kts | 349° |
| 2026-04-26 23:45 | -24.26024 | -51.64161 | 6997 ft | 172 kts | 349° |
| 2026-04-26 23:46 | -24.24831 | -51.64278 | 6998 ft | 172 kts | 349° |
| 2026-04-26 23:46 | -24.23640 | -51.64395 | 6998 ft | 171 kts | 349° |
| 2026-04-26 23:46 | -24.22458 | -51.64508 | 6996 ft | 170 kts | 349° |
| 2026-04-26 23:46 | -24.21288 | -51.64623 | 6988 ft | 168 kts | 348° |
| 2026-04-26 23:47 | -24.20131 | -51.64736 | 6986 ft | 166 kts | 348° |
| 2026-04-26 23:47 | -24.18985 | -51.64848 | 6980 ft | 165 kts | 348° |
| 2026-04-26 23:47 | -24.17848 | -51.64961 | 6983 ft | 164 kts | 348° |
| 2026-04-26 23:47 | -24.16712 | -51.65072 | 6980 ft | 164 kts | 348° |
| 2026-04-26 23:48 | -24.15578 | -51.65183 | 6982 ft | 164 kts | 348° |
| 2026-04-26 23:48 | -24.14452 | -51.65293 | 6981 ft | 164 kts | 348° |
| 2026-04-26 23:48 | -24.13314 | -51.65404 | 6980 ft | 164 kts | 348° |
| 2026-04-26 23:48 | -24.12176 | -51.65517 | 6980 ft | 164 kts | 348° |
| 2026-04-26 23:49 | -24.11035 | -51.65629 | 6982 ft | 164 kts | 348° |
| 2026-04-26 23:49 | -24.09895 | -51.65738 | 6986 ft | 165 kts | 348° |
| 2026-04-26 23:49 | -24.08766 | -51.65851 | 6987 ft | 165 kts | 348° |
| 2026-04-26 23:49 | -24.07615 | -51.65963 | 6987 ft | 166 kts | 349° |
| 2026-04-26 23:50 | -24.06466 | -51.66074 | 6985 ft | 166 kts | 348° |
| 2026-04-26 23:50 | -24.05315 | -51.66187 | 6985 ft | 166 kts | 348° |
| 2026-04-26 23:50 | -24.04166 | -51.66299 | 6981 ft | 165 kts | 348° |
| 2026-04-26 23:50 | -24.03025 | -51.66410 | 6981 ft | 164 kts | 348° |
| 2026-04-26 23:51 | -24.01890 | -51.66521 | 6982 ft | 164 kts | 348° |
| 2026-04-26 23:51 | -24.00752 | -51.66632 | 6983 ft | 165 kts | 348° |
| 2026-04-26 23:51 | -23.99610 | -51.66745 | 6986 ft | 165 kts | 348° |
| 2026-04-26 23:51 | -23.98467 | -51.66856 | 6986 ft | 165 kts | 349° |
| 2026-04-26 23:52 | -23.97324 | -51.66967 | 6986 ft | 165 kts | 349° |
| 2026-04-26 23:52 | -23.96192 | -51.67077 | 6988 ft | 165 kts | 349° |
| 2026-04-26 23:52 | -23.95044 | -51.67189 | 6987 ft | 166 kts | 349° |
| 2026-04-26 23:52 | -23.93896 | -51.67302 | 6985 ft | 165 kts | 349° |
| 2026-04-26 23:53 | -23.92750 | -51.67412 | 6988 ft | 165 kts | 349° |
| 2026-04-26 23:53 | -23.91605 | -51.67525 | 6986 ft | 165 kts | 349° |
| 2026-04-26 23:53 | -23.90458 | -51.67636 | 6987 ft | 165 kts | 349° |
| 2026-04-26 23:53 | -23.89311 | -51.67749 | 6988 ft | 165 kts | 349° |
| 2026-04-26 23:54 | -23.88165 | -51.67861 | 6985 ft | 166 kts | 349° |
| 2026-04-26 23:54 | -23.87044 | -51.67969 | 6984 ft | 166 kts | 349° |
| 2026-04-26 23:54 | -23.85898 | -51.68079 | 6985 ft | 165 kts | 349° |
| 2026-04-26 23:54 | -23.84762 | -51.68191 | 6981 ft | 165 kts | 349° |
| 2026-04-26 23:55 | -23.83617 | -51.68303 | 6983 ft | 165 kts | 349° |
| 2026-04-26 23:55 | -23.82492 | -51.68412 | 6985 ft | 166 kts | 349° |
| 2026-04-26 23:55 | -23.81347 | -51.68523 | 6982 ft | 165 kts | 349° |
| 2026-04-26 23:55 | -23.80205 | -51.68635 | 6980 ft | 164 kts | 349° |
| 2026-04-26 23:56 | -23.79070 | -51.68745 | 6981 ft | 164 kts | 349° |
| 2026-04-26 23:56 | -23.77932 | -51.68855 | 6986 ft | 165 kts | 349° |
| 2026-04-26 23:56 | -23.76786 | -51.68967 | 6986 ft | 166 kts | 349° |
| 2026-04-26 23:56 | -23.75636 | -51.69078 | 6984 ft | 165 kts | 349° |
| 2026-04-26 23:57 | -23.74504 | -51.69170 | 6977 ft | 167 kts | 355° |
| 2026-04-26 23:57 | -23.73339 | -51.68973 | 6978 ft | 171 kts | 4° |
| 2026-04-26 23:57 | -23.72167 | -51.68754 | 6978 ft | 170 kts | 3° |
| 2026-04-26 23:57 | -23.70997 | -51.68552 | 6978 ft | 171 kts | 3° |
| 2026-04-26 23:58 | -23.69827 | -51.68348 | 6979 ft | 171 kts | 2° |
| 2026-04-26 23:58 | -23.68649 | -51.68141 | 6981 ft | 171 kts | 2° |
| 2026-04-26 23:58 | -23.67468 | -51.67934 | 6981 ft | 172 kts | 3° |
| 2026-04-26 23:58 | -23.66286 | -51.67726 | 6981 ft | 172 kts | 3° |
| 2026-04-26 23:59 | -23.65108 | -51.67519 | 6981 ft | 172 kts | 3° |
| 2026-04-26 23:59 | -23.63925 | -51.67309 | 6981 ft | 172 kts | 3° |
| 2026-04-26 23:59 | -23.62744 | -51.67102 | 6979 ft | 172 kts | 3° |
| 2026-04-26 23:59 | -23.61588 | -51.66898 | 6975 ft | 169 kts | 3° |
| 2026-04-27 00:00 | -23.60429 | -51.66693 | 6974 ft | 168 kts | 2° |
| 2026-04-27 00:00 | -23.59274 | -51.66492 | 6976 ft | 168 kts | 3° |
| 2026-04-27 00:00 | -23.58111 | -51.66289 | 6976 ft | 169 kts | 3° |
| 2026-04-27 00:00 | -23.56945 | -51.66083 | 6977 ft | 170 kts | 3° |
| 2026-04-27 00:01 | -23.55778 | -51.65878 | 6977 ft | 170 kts | 3° |
| 2026-04-27 00:01 | -23.54612 | -51.65673 | 6975 ft | 169 kts | 3° |
| 2026-04-27 00:01 | -23.53455 | -51.65469 | 6976 ft | 168 kts | 3° |
| 2026-04-27 00:01 | -23.52297 | -51.65266 | 6972 ft | 169 kts | 3° |
| 2026-04-27 00:02 | -23.51140 | -51.65062 | 6974 ft | 168 kts | 3° |
| 2026-04-27 00:02 | -23.49975 | -51.64860 | 6978 ft | 170 kts | 3° |
| 2026-04-27 00:02 | -23.48806 | -51.64654 | 6977 ft | 171 kts | 3° |
| 2026-04-27 00:02 | -23.47650 | -51.64449 | 6976 ft | 170 kts | 3° |
| 2026-04-27 00:03 | -23.46486 | -51.64245 | 6975 ft | 168 kts | 3° |
| 2026-04-27 00:03 | -23.45333 | -51.64043 | 6975 ft | 168 kts | 3° |
| 2026-04-27 00:03 | -23.44181 | -51.63842 | 6977 ft | 169 kts | 3° |
| 2026-04-27 00:03 | -23.43015 | -51.63638 | 6982 ft | 171 kts | 3° |
| 2026-04-27 00:04 | -23.41837 | -51.63431 | 6977 ft | 172 kts | 3° |
| 2026-04-27 00:04 | -23.40654 | -51.63225 | 6976 ft | 172 kts | 3° |
| 2026-04-27 00:04 | -23.39479 | -51.63016 | 6975 ft | 171 kts | 4° |
| 2026-04-27 00:04 | -23.38306 | -51.62811 | 6975 ft | 171 kts | 3° |
| 2026-04-27 00:05 | -23.37148 | -51.62608 | 6973 ft | 171 kts | 2° |
| 2026-04-27 00:05 | -23.35968 | -51.62403 | 6974 ft | 173 kts | 2° |
| 2026-04-27 00:05 | -23.34774 | -51.62193 | 6974 ft | 174 kts | 2° |
| 2026-04-27 00:05 | -23.33568 | -51.61981 | 6975 ft | 176 kts | 2° |
| 2026-04-27 00:06 | -23.32360 | -51.61771 | 6974 ft | 176 kts | 2° |
| 2026-04-27 00:06 | -23.31156 | -51.61559 | 6976 ft | 175 kts | 2° |
| 2026-04-27 00:06 | -23.29951 | -51.61347 | 6979 ft | 175 kts | 2° |
| 2026-04-27 00:06 | -23.28747 | -51.61137 | 6976 ft | 174 kts | 2° |
| 2026-04-27 00:07 | -23.27557 | -51.60927 | 6979 ft | 173 kts | 2° |
| 2026-04-27 00:07 | -23.26357 | -51.60719 | 6980 ft | 174 kts | 3° |
| 2026-04-27 00:07 | -23.25166 | -51.60510 | 6982 ft | 174 kts | 3° |
| 2026-04-27 00:07 | -23.23977 | -51.60305 | 6978 ft | 175 kts | 2° |
| 2026-04-27 00:08 | -23.22773 | -51.60094 | 6979 ft | 175 kts | 3° |
| 2026-04-27 00:08 | -23.21569 | -51.59882 | 6977 ft | 175 kts | 2° |
| 2026-04-27 00:08 | -23.20370 | -51.59673 | 6977 ft | 174 kts | 2° |
| 2026-04-27 00:08 | -23.19172 | -51.59463 | 6976 ft | 174 kts | 2° |
| 2026-04-27 00:09 | -23.17979 | -51.59254 | 6976 ft | 173 kts | 3° |
| 2026-04-27 00:09 | -23.16779 | -51.59047 | 6974 ft | 174 kts | 3° |
| 2026-04-27 00:09 | -23.15579 | -51.58838 | 6972 ft | 174 kts | 3° |
| 2026-04-27 00:09 | -23.14399 | -51.58631 | 6972 ft | 174 kts | 3° |
| 2026-04-27 00:10 | -23.13203 | -51.58421 | 6973 ft | 174 kts | 3° |
| 2026-04-27 00:10 | -23.12009 | -51.58212 | 6975 ft | 174 kts | 3° |
| 2026-04-27 00:10 | -23.10807 | -51.58003 | 6971 ft | 175 kts | 3° |
| 2026-04-27 00:10 | -23.09610 | -51.57792 | 6973 ft | 174 kts | 3° |
| 2026-04-27 00:11 | -23.08816 | -51.57655 | 6972 ft | 173 kts | 3° |
| 2026-04-27 00:11 | -23.07626 | -51.57447 | 6973 ft | 172 kts | 4° |
| 2026-04-27 00:11 | -23.06442 | -51.57241 | 6973 ft | 172 kts | 3° |
| 2026-04-27 00:11 | -23.04865 | -51.56966 | 6972 ft | 171 kts | 3° |
| 2026-04-27 00:12 | -23.04089 | -51.56830 | 6973 ft | 171 kts | 3° |
| 2026-04-27 00:12 | -23.02523 | -51.56558 | 6974 ft | 172 kts | 4° |
| 2026-04-27 00:12 | -23.01725 | -51.56418 | 6975 ft | 172 kts | 4° |
| 2026-04-27 00:12 | -23.00545 | -51.56213 | 6974 ft | 171 kts | 3° |
| 2026-04-27 00:13 | -22.99374 | -51.56008 | 6974 ft | 170 kts | 4° |
| 2026-04-27 00:13 | -22.98206 | -51.55803 | 6977 ft | 172 kts | 4° |
| 2026-04-27 00:13 | -22.97033 | -51.55600 | 6981 ft | 173 kts | 4° |
| 2026-04-27 00:13 | -22.95844 | -51.55393 | 6984 ft | 172 kts | 3° |
| 2026-04-27 00:14 | -22.94645 | -51.55189 | 6982 ft | 174 kts | 4° |
| 2026-04-27 00:14 | -22.93464 | -51.54978 | 6985 ft | 174 kts | 4° |
| 2026-04-27 00:14 | -22.92266 | -51.54773 | 6991 ft | 175 kts | 3° |
| 2026-04-27 00:14 | -22.91050 | -51.54563 | 6989 ft | 178 kts | 4° |
| 2026-04-27 00:15 | -22.89834 | -51.54348 | 6985 ft | 178 kts | 4° |
| 2026-04-27 00:15 | -22.88614 | -51.54129 | 6984 ft | 177 kts | 4° |
| 2026-04-27 00:15 | -22.87409 | -51.53923 | 6979 ft | 173 kts | 4° |
| 2026-04-27 00:15 | -22.86218 | -51.53718 | 6982 ft | 172 kts | 3° |
| 2026-04-27 00:16 | -22.85034 | -51.53513 | 6984 ft | 172 kts | 4° |
| 2026-04-27 00:16 | -22.83848 | -51.53303 | 6986 ft | 174 kts | 4° |
| 2026-04-27 00:16 | -22.82635 | -51.53102 | 6990 ft | 179 kts | 4° |
| 2026-04-27 00:16 | -22.81411 | -51.52889 | 6988 ft | 182 kts | 4° |
| 2026-04-27 00:17 | -22.80165 | -51.52672 | 6989 ft | 181 kts | 4° |
| 2026-04-27 00:17 | -22.78927 | -51.52453 | 6983 ft | 180 kts | 4° |
| 2026-04-27 00:17 | -22.77691 | -51.52238 | 6983 ft | 177 kts | 4° |
| 2026-04-27 00:17 | -22.76483 | -51.52028 | 6979 ft | 174 kts | 4° |
| 2026-04-27 00:18 | -22.75287 | -51.51818 | 6975 ft | 174 kts | 4° |
| 2026-04-27 00:18 | -22.74096 | -51.51611 | 6972 ft | 171 kts | 4° |
| 2026-04-27 00:18 | -22.72926 | -51.51410 | 6968 ft | 170 kts | 4° |
| 2026-04-27 00:18 | -22.71754 | -51.51209 | 6967 ft | 171 kts | 4° |
| 2026-04-27 00:19 | -22.70581 | -51.51004 | 6966 ft | 171 kts | 4° |
| 2026-04-27 00:19 | -22.69406 | -51.50801 | 6967 ft | 171 kts | 4° |
| 2026-04-27 00:19 | -22.68230 | -51.50597 | 6972 ft | 171 kts | 4° |
| 2026-04-27 00:19 | -22.67053 | -51.50392 | 6974 ft | 171 kts | 4° |
| 2026-04-27 00:20 | -22.65891 | -51.50191 | 6974 ft | 171 kts | 4° |
| 2026-04-27 00:20 | -22.64712 | -51.49986 | 6974 ft | 171 kts | 4° |
| 2026-04-27 00:20 | -22.63536 | -51.49782 | 6974 ft | 170 kts | 4° |
| 2026-04-27 00:20 | -22.62364 | -51.49579 | 6977 ft | 171 kts | 4° |
| 2026-04-27 00:21 | -22.61189 | -51.49376 | 6977 ft | 172 kts | 4° |
| 2026-04-27 00:21 | -22.60007 | -51.49172 | 6978 ft | 172 kts | 4° |
| 2026-04-27 00:21 | -22.58827 | -51.48965 | 6978 ft | 172 kts | 4° |
| 2026-04-27 00:21 | -22.57647 | -51.48761 | 6978 ft | 171 kts | 4° |
| 2026-04-27 00:22 | -22.56466 | -51.48558 | 6978 ft | 172 kts | 4° |
| 2026-04-27 00:22 | -22.55302 | -51.48357 | 6977 ft | 171 kts | 4° |
| 2026-04-27 00:22 | -22.54124 | -51.48152 | 6977 ft | 171 kts | 4° |
| 2026-04-27 00:22 | -22.53124 | -51.47979 | 6907 ft | 10 kts | 355° |
| 2026-04-27 00:23 | -22.52367 | -51.47936 | 5362 ft | 188 kts | 5° |
| 2026-04-27 00:23 | -22.51257 | -51.47692 | 5537 ft | 170 kts | 7° |
| 2026-04-27 00:23 | -22.50131 | -51.47466 | 5703 ft | 162 kts | 6° |
| 2026-04-27 00:23 | -22.49018 | -51.47269 | 5841 ft | 162 kts | 5° |
| 2026-04-27 00:24 | -22.47915 | -51.47080 | 5969 ft | 159 kts | 5° |
| 2026-04-27 00:24 | -22.46823 | -51.46888 | 6098 ft | 160 kts | 4° |
| 2026-04-27 00:24 | -22.45726 | -51.46696 | 6214 ft | 160 kts | 4° |
| 2026-04-27 00:24 | -22.44554 | -51.46505 | 5984 ft | 177 kts | 4° |
| 2026-04-27 00:25 | -22.43316 | -51.46291 | 5739 ft | 183 kts | 5° |
| 2026-04-27 00:25 | -22.42065 | -51.46071 | 5601 ft | 181 kts | 5° |
| 2026-04-27 00:25 | -22.40821 | -51.45854 | 5448 ft | 181 kts | 5° |
| 2026-04-27 00:25 | -22.39576 | -51.45641 | 5303 ft | 182 kts | 6° |
| 2026-04-27 00:26 | -22.38332 | -51.45424 | 5152 ft | 183 kts | 6° |
| 2026-04-27 00:26 | -22.37077 | -51.45207 | 5005 ft | 183 kts | 6° |
| 2026-04-27 00:26 | -22.35827 | -51.44991 | 4859 ft | 182 kts | 6° |
| 2026-04-27 00:26 | -22.34570 | -51.44774 | 4705 ft | 182 kts | 6° |
| 2026-04-27 00:27 | -22.33320 | -51.44558 | 4555 ft | 181 kts | 7° |
| 2026-04-27 00:27 | -22.32077 | -51.44344 | 4400 ft | 180 kts | 7° |
| 2026-04-27 00:27 | -22.30837 | -51.44132 | 4257 ft | 181 kts | 7° |
| 2026-04-27 00:27 | -22.29596 | -51.43917 | 4106 ft | 184 kts | 7° |
| 2026-04-27 00:28 | -22.28339 | -51.43699 | 3968 ft | 184 kts | 7° |
| 2026-04-27 00:28 | -22.27066 | -51.43480 | 3810 ft | 183 kts | 8° |
| 2026-04-27 00:28 | -22.25927 | -51.43284 | 3693 ft | 178 kts | 7° |
| 2026-04-27 00:28 | -22.24704 | -51.43081 | 3582 ft | 179 kts | 8° |
| 2026-04-27 00:29 | -22.23467 | -51.42858 | 3456 ft | 181 kts | 8° |
| 2026-04-27 00:29 | -22.22217 | -51.42652 | 3328 ft | 182 kts | 8° |
| 2026-04-27 00:29 | -22.20971 | -51.42649 | 3196 ft | 179 kts | 346° |
| 2026-04-27 00:29 | -22.19856 | -51.43198 | 3074 ft | 176 kts | 324° |
| 2026-04-27 00:30 | -22.19048 | -51.44160 | 3063 ft | 172 kts | 301° |
| 2026-04-27 00:30 | -22.18658 | -51.45344 | 3066 ft | 171 kts | 279° |
| 2026-04-27 00:30 | -22.18717 | -51.46620 | 3061 ft | 171 kts | 259° |
| 2026-04-27 00:30 | -22.18959 | -51.47865 | 3066 ft | 170 kts | 260° |
| 2026-04-27 00:31 | -22.19187 | -51.49120 | 3066 ft | 172 kts | 260° |
| 2026-04-27 00:31 | -22.19417 | -51.50365 | 3066 ft | 172 kts | 259° |
| 2026-04-27 00:31 | -22.19654 | -51.51623 | 3076 ft | 171 kts | 260° |
| 2026-04-27 00:31 | -22.19890 | -51.52886 | 3066 ft | 172 kts | 260° |
| 2026-04-27 00:32 | -22.20121 | -51.54142 | 3070 ft | 171 kts | 260° |
| 2026-04-27 00:32 | -22.20355 | -51.55398 | 3064 ft | 170 kts | 260° |
| 2026-04-27 00:32 | -22.20587 | -51.56654 | 3070 ft | 172 kts | 260° |
| 2026-04-27 00:32 | -22.20823 | -51.57915 | 3064 ft | 171 kts | 259° |
| 2026-04-27 00:33 | -22.21058 | -51.59171 | 3069 ft | 171 kts | 260° |
| 2026-04-27 00:33 | -22.21136 | -51.60447 | 3060 ft | 170 kts | 281° |
| 2026-04-27 00:33 | -22.20695 | -51.61605 | 3063 ft | 166 kts | 305° |
| 2026-04-27 00:33 | -22.19869 | -51.62446 | 3065 ft | 167 kts | 329° |
| 2026-04-27 00:34 | -22.18770 | -51.62847 | 3067 ft | 169 kts | 353° |
| 2026-04-27 00:34 | -22.17610 | -51.62706 | 3062 ft | 169 kts | 18° |
| 2026-04-27 00:34 | -22.16567 | -51.62127 | 3075 ft | 169 kts | 28° |
| 2026-04-27 00:34 | -22.15649 | -51.61337 | 3073 ft | 173 kts | 52° |
| 2026-04-27 00:35 | -22.15166 | -51.60158 | 3062 ft | 172 kts | 78° |
| 2026-04-27 00:35 | -22.15199 | -51.58877 | 3062 ft | 172 kts | 98° |
| 2026-04-27 00:35 | -22.15392 | -51.57604 | 3078 ft | 173 kts | 97° |
| 2026-04-27 00:35 | -22.15566 | -51.56312 | 3064 ft | 174 kts | 97° |
| 2026-04-27 00:36 | -22.15746 | -51.55036 | 3064 ft | 171 kts | 97° |
| 2026-04-27 00:36 | -22.15920 | -51.53774 | 3065 ft | 169 kts | 97° |
| 2026-04-27 00:36 | -22.16094 | -51.52513 | 3082 ft | 171 kts | 97° |
| 2026-04-27 00:36 | -22.16272 | -51.51255 | 3027 ft | 168 kts | 97° |
| 2026-04-27 00:37 | -22.16432 | -51.50025 | 2814 ft | 161 kts | 96° |
| 2026-04-27 00:37 | -22.16558 | -51.48868 | 2525 ft | 151 kts | 96° |
| 2026-04-27 00:37 | -22.16688 | -51.47789 | 2232 ft | 141 kts | 100° |
| 2026-04-27 00:37 | -22.16835 | -51.46777 | 1981 ft | 134 kts | 99° |
| 2026-04-27 00:38 | -22.17003 | -51.45840 | 1752 ft | 120 kts | 100° |
| 2026-04-27 00:38 | -22.17128 | -51.45012 | 1601 ft | 103 kts | 99° |
| 2026-04-27 00:38 | -22.17238 | -51.44307 | 1535 ft | 86 kts | 99° |
| 2026-04-27 00:38 | -22.17325 | -51.43723 | 1470 ft | 74 kts | 101° |
| 2026-04-27 00:39 | -22.17395 | -51.43206 | 1445 ft | 65 kts | 98° |
| 2026-04-27 00:39 | -22.17460 | -51.42781 | 1463 ft | 53 kts | 98° |
| 2026-04-27 00:39 | -22.17520 | -51.42358 | 1483 ft | 57 kts | 98° |
| 2026-04-27 00:39 | -22.17590 | -51.42209 | 1479 ft | 20 kts | 148° |
| 2026-04-27 00:40 | -22.17699 | -51.42099 | 1481 ft | 21 kts | 116° |
| 2026-04-27 00:40 | -22.17721 | -51.41937 | 1487 ft | 23 kts | 91° |
| 2026-04-27 00:40 | -22.17736 | -51.41812 | 1479 ft | 15 kts | 101° |
| 2026-04-27 00:40 | -22.17761 | -51.41699 | 1478 ft | 13 kts | 123° |
| 2026-04-27 00:41 | -22.17794 | -51.41687 | 1487 ft | 0 kts | 185° |